createdAt,value
2018-08-30T00:02:55.378Z,11.80
2018-08-30T00:07:59.063Z,12.97
2018-08-30T00:13:02.557Z,13.17
2018-08-30T00:18:05.909Z,14.63
2018-08-30T00:23:09.368Z,14.13
2018-08-30T00:28:12.417Z,14.83
2018-08-30T00:33:16.051Z,14.67
2018-08-30T00:38:19.191Z,14.93
2018-08-30T00:43:22.629Z,13.10
2018-08-30T00:48:26.262Z,13.90
2018-08-30T00:53:29.603Z,13.93
2018-08-30T00:58:32.931Z,12.47
2018-08-30T01:03:36.384Z,11.83
2018-08-30T01:08:39.598Z,11.20
2018-08-30T01:13:43.099Z,13.13
2018-08-30T01:18:46.570Z,12.90
2018-08-30T01:23:49.908Z,13.17
2018-08-30T01:28:53.151Z,15.53
2018-08-30T01:33:56.097Z,15.43
2018-08-30T01:38:59.613Z,13.87
2018-08-30T01:44:03.486Z,15.50
2018-08-30T01:49:06.592Z,14.20
2018-08-30T01:54:10.040Z,16.87
2018-08-30T01:59:13.075Z,15.67
2018-08-30T02:04:16.316Z,14.23
2018-08-30T02:09:19.840Z,15.73
2018-08-30T02:14:23.660Z,15.43
2018-08-30T02:19:27.454Z,16.60
2018-08-30T02:24:31.010Z,15.23
2018-08-30T02:29:34.156Z,16.13
2018-08-30T02:34:37.364Z,14.37
2018-08-30T02:39:40.686Z,16.43
2018-08-30T02:44:43.854Z,14.33
2018-08-30T02:49:47.969Z,14.40
2018-08-30T02:54:51.532Z,14.87
2018-08-30T02:59:54.792Z,17.50
2018-08-30T03:04:58.116Z,17.60
2018-08-30T03:10:01.172Z,18.03
2018-08-30T03:15:09.207Z,15.70
2018-08-30T03:20:13.770Z,17.00
2018-08-30T03:25:16.778Z,20.07
2018-08-30T03:30:19.974Z,23.23
2018-08-30T03:35:23.233Z,22.27
2018-08-30T03:40:26.382Z,24.97
2018-08-30T03:45:29.822Z,26.03
2018-08-30T03:50:33.504Z,24.90
2018-08-30T03:55:36.538Z,29.03
2018-08-30T04:00:39.879Z,30.10
2018-08-30T04:05:43.112Z,28.47
2018-08-30T04:10:46.090Z,29.67
2018-08-30T04:15:49.712Z,27.97
2018-08-30T04:20:52.703Z,33.50
2018-08-30T04:25:55.681Z,31.60
2018-08-30T04:30:59.063Z,34.47
2018-08-30T04:36:02.187Z,34.10
2018-08-30T04:41:05.451Z,35.60
2018-08-30T04:46:08.984Z,38.00
2018-08-30T04:51:12.079Z,42.40
2018-08-30T04:56:16.531Z,41.20
2018-08-30T05:01:19.570Z,43.60
2018-08-30T05:06:22.682Z,42.87
2018-08-30T05:11:25.684Z,45.63
2018-08-30T05:16:28.901Z,52.33
2018-08-30T05:21:31.804Z,55.87
2018-08-30T05:26:35.109Z,53.70
2018-08-30T05:31:38.147Z,54.53
2018-08-30T05:36:41.123Z,54.20
2018-08-30T05:41:44.154Z,57.37
2018-08-30T05:46:47.266Z,55.93
2018-08-30T05:51:50.330Z,52.87
2018-08-30T05:56:54.100Z,53.87
2018-08-30T06:01:57.136Z,49.23
2018-08-30T06:07:00.075Z,55.33
2018-08-30T06:12:03.055Z,54.67
2018-08-30T06:17:06.119Z,56.37
2018-08-30T06:22:09.068Z,54.27
2018-08-30T06:27:12.287Z,52.53
2018-08-30T06:32:15.305Z,48.90
2018-08-30T06:37:19.334Z,33.53
2018-08-30T06:42:22.306Z,43.93
2018-08-30T06:47:26.518Z,43.23
2018-08-30T06:52:29.487Z,48.57
2018-08-30T06:57:32.852Z,41.20
2018-08-30T07:02:36.222Z,46.80
2018-08-30T07:07:42.417Z,47.20
2018-08-30T07:12:49.293Z,48.43
2018-08-30T07:17:53.366Z,47.57
2018-08-30T07:22:56.327Z,51.10
2018-08-30T07:27:59.346Z,45.87
2018-08-30T07:33:03.019Z,31.20
2018-08-30T07:39:25.632Z,48.47
2018-08-30T07:44:29.096Z,52.83
2018-08-30T07:49:33.285Z,50.83
2018-08-30T07:54:36.886Z,50.73
2018-08-30T07:59:40.909Z,51.00
2018-08-30T08:04:44.353Z,47.50
2018-08-30T08:09:47.789Z,45.00
2018-08-30T08:14:51.401Z,39.57
2018-08-30T08:19:54.944Z,41.00
2018-08-30T08:24:58.308Z,35.70
2018-08-30T08:30:06.365Z,35.53
2018-08-30T08:35:10.031Z,38.30
2018-08-30T08:40:13.825Z,37.07
2018-08-30T08:45:17.609Z,38.10
2018-08-30T08:50:21.194Z,41.77
2018-08-30T08:55:24.538Z,44.00
2018-08-30T09:00:27.871Z,42.07
2018-08-30T09:05:31.237Z,39.70
2018-08-30T09:10:34.647Z,40.00
2018-08-30T09:15:38.252Z,38.43
2018-08-30T09:20:41.921Z,32.67
2018-08-30T09:25:45.269Z,34.17
2018-08-30T09:30:48.608Z,33.57
2018-08-30T09:35:51.958Z,40.47
2018-08-30T09:40:55.389Z,39.70
2018-08-30T09:45:58.758Z,41.20
2018-08-30T09:51:02.668Z,36.23
2018-08-30T09:56:06.565Z,31.97
2018-08-30T10:01:15.457Z,33.13
2018-08-30T10:06:18.870Z,30.70
2018-08-30T10:11:22.253Z,31.87
2018-08-30T10:16:25.656Z,31.63
2018-08-30T10:21:29.940Z,28.00
2018-08-30T10:26:33.316Z,26.10
2018-08-30T10:31:36.854Z,26.13
2018-08-30T10:36:40.212Z,22.30
2018-08-30T10:41:43.589Z,22.47
2018-08-30T10:46:46.941Z,28.40
2018-08-30T10:51:51.073Z,26.20
2018-08-30T10:56:54.420Z,27.67
2018-08-30T11:01:57.997Z,30.90
2018-08-30T11:07:01.507Z,33.80
2018-08-30T11:12:04.914Z,35.20
2018-08-30T11:17:08.258Z,30.60
2018-08-30T11:22:11.708Z,30.40
2018-08-30T11:27:15.048Z,30.50
2018-08-30T11:32:18.480Z,37.30
2018-08-30T11:37:21.857Z,39.13
2018-08-30T11:42:25.261Z,43.83
2018-08-30T11:47:28.602Z,48.50
2018-08-30T11:52:32.579Z,45.50
2018-08-30T11:57:36.256Z,49.33
2018-08-30T12:02:39.736Z,49.73
2018-08-30T12:07:43.730Z,53.20
2018-08-30T12:12:47.244Z,49.90
2018-08-30T12:17:50.649Z,43.67
2018-08-30T12:22:54.186Z,39.17
2018-08-30T12:27:57.823Z,38.00
2018-08-30T12:33:01.182Z,38.67
2018-08-30T12:38:04.857Z,37.50
2018-08-30T12:43:15.073Z,34.20
2018-08-30T12:48:19.219Z,28.30
2018-08-30T12:53:23.165Z,25.90
2018-08-30T12:58:26.878Z,26.60
2018-08-30T13:03:33.448Z,21.50
2018-08-30T13:08:37.242Z,18.50
2018-08-30T13:13:40.570Z,18.30
2018-08-30T13:18:44.053Z,15.70
2018-08-30T13:23:47.945Z,15.17
2018-08-30T13:28:51.333Z,15.73
2018-08-30T13:33:55.119Z,13.80
2018-08-30T13:38:58.992Z,15.20
2018-08-30T13:44:02.244Z,15.23
2018-08-30T13:49:05.857Z,14.93
2018-08-30T13:54:14.129Z,14.53
2018-08-30T13:59:21.996Z,15.33
2018-08-30T14:04:26.379Z,14.33
2018-08-30T14:09:29.819Z,11.90
2018-08-30T14:14:33.262Z,14.40
2018-08-30T14:19:38.450Z,14.20
2018-08-30T14:24:44.898Z,15.47
2018-08-30T14:29:48.978Z,11.30
2018-08-30T14:34:52.480Z,12.80
2018-08-30T14:39:56.324Z,9.50
2018-08-30T14:44:59.780Z,7.10
2018-08-30T14:50:03.198Z,5.33
2018-08-30T14:55:07.671Z,3.20
2018-08-30T15:00:11.245Z,3.70
2018-08-30T15:05:14.812Z,4.30
2018-08-30T15:10:18.654Z,3.87
2018-08-30T15:15:22.248Z,3.33
2018-08-30T15:20:25.663Z,3.40
2018-08-30T15:25:29.532Z,3.07
2018-08-30T15:30:33.055Z,4.10
2018-08-30T15:35:36.586Z,3.80
2018-08-30T15:40:40.471Z,3.97
2018-08-30T15:45:44.883Z,4.30
2018-08-30T15:50:48.816Z,3.77
2018-08-30T15:55:52.677Z,3.23
2018-08-30T16:00:56.289Z,4.00
2018-08-30T16:05:59.848Z,4.20
2018-08-30T16:11:03.767Z,3.90
2018-08-30T16:16:07.865Z,4.40
2018-08-30T16:21:11.640Z,3.80
2018-08-30T16:26:15.534Z,4.33
2018-08-30T16:31:19.285Z,3.27
2018-08-30T16:36:22.829Z,5.47
2018-08-30T16:41:26.667Z,4.57
2018-08-30T16:46:30.672Z,5.27
2018-08-30T16:51:34.377Z,4.43
2018-08-30T16:56:38.015Z,4.00
2018-08-30T17:01:41.746Z,3.80
2018-08-30T17:06:45.923Z,4.67
2018-08-30T17:11:49.801Z,3.70
2018-08-30T17:16:53.741Z,4.57
2018-08-30T17:21:57.545Z,4.10
2018-08-30T17:27:01.707Z,4.20
2018-08-30T17:32:05.740Z,3.47
2018-08-30T17:37:09.511Z,3.40
2018-08-30T17:42:13.421Z,4.10
2018-08-30T17:47:17.327Z,4.10
2018-08-30T17:52:22.436Z,4.40
2018-08-30T17:57:26.652Z,3.43
2018-08-30T18:02:31.995Z,5.00
2018-08-30T18:07:36.173Z,3.53
2018-08-30T18:12:40.165Z,4.80
2018-08-30T18:17:44.499Z,3.73
2018-08-30T18:22:48.229Z,4.53
2018-08-30T18:27:52.305Z,3.50
2018-08-30T18:32:55.972Z,4.33
2018-08-30T18:37:59.638Z,4.27
2018-08-30T18:43:03.485Z,3.00
2018-08-30T18:48:07.184Z,2.60
2018-08-30T18:53:11.206Z,3.30
2018-08-30T18:58:15.523Z,4.20
2018-08-30T19:03:22.523Z,4.10
2018-08-30T19:08:26.496Z,3.70
2018-08-30T19:13:30.889Z,4.00
2018-08-30T19:18:39.939Z,4.40
2018-08-30T19:23:43.584Z,4.23
2018-08-30T19:28:48.073Z,4.90
2018-08-30T19:33:52.015Z,4.40
2018-08-30T19:38:55.865Z,4.00
2018-08-30T19:44:07.496Z,5.23
2018-08-30T19:49:11.150Z,2.93
2018-08-30T19:54:15.143Z,4.30
2018-08-30T19:59:19.785Z,4.33
2018-08-30T20:04:23.507Z,4.23
2018-08-30T20:09:27.408Z,4.40
2018-08-30T20:14:31.521Z,3.17
2018-08-30T20:19:35.909Z,2.97
2018-08-30T20:24:39.398Z,3.57
2018-08-30T20:29:43.501Z,4.70
2018-08-30T20:34:47.016Z,3.00
2018-08-30T20:39:50.547Z,3.40
2018-08-30T20:44:54.131Z,3.13
2018-08-30T20:49:57.835Z,3.80
2018-08-30T20:55:01.573Z,3.70
2018-08-30T21:00:05.675Z,3.40
2018-08-30T21:05:09.290Z,4.13
2018-08-30T21:10:12.822Z,3.63
2018-08-30T21:15:16.156Z,3.30
2018-08-30T21:20:19.612Z,3.30
2018-08-30T21:25:23.021Z,4.83
2018-08-30T21:30:26.719Z,3.10
2018-08-30T21:35:30.884Z,3.93
2018-08-30T21:40:34.347Z,4.23
2018-08-30T21:45:37.836Z,3.27
2018-08-30T21:50:41.300Z,4.90
2018-08-30T21:55:44.854Z,4.40
2018-08-30T22:00:48.409Z,3.10
2018-08-30T22:05:52.120Z,4.13
2018-08-30T22:10:55.795Z,3.67
2018-08-30T22:15:59.556Z,3.50
2018-08-30T22:21:02.960Z,3.93
2018-08-30T22:26:06.675Z,3.80
2018-08-30T22:31:10.320Z,4.47
2018-08-30T22:36:13.764Z,3.20
2018-08-30T22:41:17.367Z,4.63
2018-08-30T22:46:20.837Z,4.60
2018-08-30T22:51:24.164Z,3.53
2018-08-30T22:56:27.474Z,4.90
2018-08-30T23:01:31.217Z,3.87
2018-08-30T23:06:34.867Z,4.33
2018-08-30T23:11:38.880Z,4.90
2018-08-30T23:16:42.877Z,4.77
2018-08-30T23:21:46.617Z,3.97
2018-08-30T23:26:50.259Z,4.33
2018-08-30T23:31:53.951Z,3.23
2018-08-30T23:36:57.399Z,3.50
2018-08-30T23:42:01.680Z,3.70
2018-08-30T23:47:05.300Z,3.70
2018-08-30T23:52:08.920Z,3.00
2018-08-30T23:57:12.473Z,3.83
